Time;durP1;ratioP1;P1;durP2;ratioP2;P2;SDS_P1;SDS_P2;PMS_P1;PMS_P2;Temp;Humidity;BMP_temperature;BMP_pressure;BME280_temperature;BME280_humidity;BME280_pressure;Samples;Min_cycle;Max_cycle;Signal;HPM_P1;HPM_P2
2023/08/04 00:01:36;;;;;;;;;11.20;11.20;;;;;27.51;34.38;98598.00;5071837;28;8873;-77
2023/08/04 00:04:04;;;;;;;;;11.80;11.20;;;;;27.51;34.27;98595.31;5070191;28;8871;-76
2023/08/04 00:06:33;;;;;;;;;13.00;12.20;;;;;27.57;34.42;98593.84;5092252;28;8848;-77
2023/08/04 00:09:03;;;;;;;;;11.80;11.00;;;;;27.50;34.29;98596.34;5092331;28;9668;-76
2023/08/04 00:11:32;;;;;;;;;11.60;11.60;;;;;27.55;34.62;98594.00;5089810;28;8909;-77
2023/08/04 00:14:01;;;;;;;;;13.60;12.60;;;;;27.47;35.38;98596.66;5071760;28;8874;-77
2023/08/04 00:16:30;;;;;;;;;13.80;13.60;;;;;27.54;34.67;98594.16;5073297;28;8854;-78
2023/08/04 00:18:58;;;;;;;;;14.00;13.00;;;;;27.48;35.43;98601.06;5075172;28;8858;-75
2023/08/04 00:21:27;;;;;;;;;11.80;11.00;;;;;27.45;34.38;98595.97;5092427;28;8862;-77
2023/08/04 00:23:58;;;;;;;;;8.20;8.20;;;;;27.44;34.11;98591.59;5093324;28;9003;-78
2023/08/04 00:26:28;;;;;;;;;11.60;11.40;;;;;27.42;34.59;98590.91;5092640;28;8939;-77
2023/08/04 00:28:57;;;;;;;;;15.00;14.20;;;;;27.42;35.00;98604.41;5077837;28;8892;-78
2023/08/04 00:31:26;;;;;;;;;14.00;12.80;;;;;27.24;35.42;98601.81;5073411;28;9611;-78
2023/08/04 00:33:55;;;;;;;;;11.40;11.40;;;;;27.17;35.13;98596.22;5071917;28;8862;-77
2023/08/04 00:36:24;;;;;;;;;12.60;12.60;;;;;27.05;34.81;98598.34;5071679;28;8877;-79
2023/08/04 00:38:53;;;;;;;;;9.00;9.00;;;;;26.65;35.38;98598.97;5090981;28;8856;-78
2023/08/04 00:41:21;;;;;;;;;9.60;9.20;;;;;26.55;35.12;98598.19;5107404;28;8875;-76
2023/08/04 00:43:51;;;;;;;;;11.20;11.20;;;;;26.37;35.78;98601.75;5082559;28;8943;-77
2023/08/04 00:46:21;;;;;;;;;9.60;9.60;;;;;26.21;35.99;98599.81;5071084;28;8869;-77
2023/08/04 00:48:50;;;;;;;;;12.00;11.80;;;;;26.07;36.21;98598.50;5069196;28;9609;-77
2023/08/04 00:51:19;;;;;;;;;8.80;8.80;;;;;26.02;36.19;98590.03;5069607;28;8838;-76
2023/08/04 00:53:48;;;;;;;;;10.80;9.40;;;;;25.98;35.64;98594.03;5080073;28;8882;-77
2023/08/04 00:56:17;;;;;;;;;9.00;9.00;;;;;26.29;35.38;98586.38;5039624;28;8862;-77
2023/08/04 00:58:45;;;;;;;;;9.20;9.20;;;;;26.28;34.58;98589.22;5091299;28;8872;-77
2023/08/04 01:01:16;;;;;;;;;8.20;8.20;;;;;26.39;34.58;98590.84;5081705;28;8858;-77
2023/08/04 01:03:45;;;;;;;;;8.80;8.80;;;;;26.41;35.02;98584.28;5052616;28;8878;-78
2023/08/04 01:06:26;;;;;;;;;11.80;11.80;;;;;26.56;35.00;98583.75;5071304;28;8842;-76
2023/08/04 01:09:07;;;;;;;;;11.00;10.00;;;;;26.37;34.11;98577.50;5051913;28;8973;-77
2023/08/04 01:11:49;;;;;;;;;8.40;8.40;;;;;26.52;33.95;98583.22;5022220;28;8905;-77
2023/08/04 01:14:19;;;;;;;;;11.60;10.40;;;;;26.52;34.18;98585.91;5090317;28;8936;-76
2023/08/04 01:16:50;;;;;;;;;12.00;11.00;;;;;26.60;34.53;98580.56;5082777;28;8838;-77
2023/08/04 01:19:18;;;;;;;;;6.40;6.20;;;;;26.52;33.15;98580.50;5070409;28;8865;-75
2023/08/04 01:21:49;;;;;;;;;9.20;9.20;;;;;26.32;33.85;98582.53;5071538;28;8850;-78
2023/08/04 01:24:18;;;;;;;;;9.00;8.80;;;;;26.42;33.17;98574.38;5072215;28;8967;-76
2023/08/04 01:26:48;;;;;;;;;11.00;10.60;;;;;26.42;33.66;98580.59;5075178;28;8832;-76
2023/08/04 01:29:20;;;;;;;;;8.80;8.80;;;;;26.44;33.71;98575.88;5092397;28;8884;-78
2023/08/04 01:31:50;;;;;;;;;9.60;8.80;;;;;26.38;33.30;98579.22;5090822;28;8831;-77
2023/08/04 01:34:19;;;;;;;;;9.20;9.20;;;;;26.54;34.56;98569.59;5107258;28;8852;-78
2023/08/04 01:36:49;;;;;;;;;13.60;13.60;;;;;26.21;36.47;98569.31;5091386;28;8860;-78
2023/08/04 01:39:19;;;;;;;;;11.00;10.20;;;;;26.33;34.61;98565.38;5088642;28;8990;-78
2023/08/04 01:41:48;;;;;;;;;8.60;8.60;;;;;26.30;34.25;98568.38;5070185;28;8885;-77
2023/08/04 01:44:17;;;;;;;;;10.20;10.20;;;;;26.33;34.26;98580.69;5073674;28;8924;-78
2023/08/04 01:46:45;;;;;;;;;11.00;9.40;;;;;26.28;34.57;98573.91;5089426;28;8906;-77
2023/08/04 01:49:14;;;;;;;;;8.00;8.00;;;;;26.40;34.16;98571.81;5072787;28;9701;-79
2023/08/04 01:51:43;;;;;;;;;9.80;9.40;;;;;26.24;34.95;98577.91;5089204;28;8916;-78
2023/08/04 01:54:13;;;;;;;;;10.20;10.20;;;;;25.99;35.79;98573.34;5038323;28;8880;-77
2023/08/04 01:56:42;;;;;;;;;11.20;11.20;;;;;25.93;35.87;98574.81;5069294;28;8838;-77
2023/08/04 01:59:11;;;;;;;;;10.20;8.40;;;;;26.00;35.27;98578.59;5070226;28;8850;-78
2023/08/04 02:01:42;;;;;;;;;12.20;11.20;;;;;26.12;35.97;98571.09;5075339;28;8859;-78
2023/08/04 02:04:10;;;;;;;;;9.60;9.60;;;;;26.19;36.10;98579.38;5090354;28;8928;-78
2023/08/04 02:06:39;;;;;;;;;11.00;11.00;;;;;26.24;35.91;98579.78;5090175;28;8862;-78
2023/08/04 02:09:08;;;;;;;;;13.80;13.80;;;;;26.35;35.90;98579.53;5090688;28;8867;-77
2023/08/04 02:11:38;;;;;;;;;13.80;12.40;;;;;26.43;35.73;98578.72;5090108;28;8874;-78
2023/08/04 02:14:07;;;;;;;;;10.40;9.00;;;;;26.45;36.03;98584.81;5090055;28;8868;-77
2023/08/04 02:16:36;;;;;;;;;11.00;11.00;;;;;26.42;36.00;98580.59;5076259;28;8849;-77
2023/08/04 02:19:06;;;;;;;;;14.00;14.00;;;;;26.39;36.57;98580.91;5077630;28;8836;-76
2023/08/04 02:21:36;;;;;;;;;10.20;10.20;;;;;26.32;36.04;98582.53;5070333;28;8856;-78
2023/08/04 02:24:06;;;;;;;;;13.80;13.80;;;;;26.26;36.55;98585.84;5106647;28;8948;-78
2023/08/04 02:26:35;;;;;;;;;13.40;12.60;;;;;26.26;36.46;98586.69;5085153;28;8956;-77
2023/08/04 02:29:06;;;;;;;;;12.00;11.00;;;;;26.18;36.83;98583.94;5068846;28;8846;-77
2023/08/04 02:31:35;;;;;;;;;12.00;12.00;;;;;26.15;37.42;98588.78;5068711;28;8846;-78
2023/08/04 02:34:04;;;;;;;;;12.80;12.60;;;;;26.09;36.98;98591.09;5074969;28;8860;-78
2023/08/04 02:36:33;;;;;;;;;14.20;13.20;;;;;26.16;37.13;98580.56;5089594;28;8863;-77
2023/08/04 02:39:02;;;;;;;;;14.60;14.00;;;;;25.97;36.79;98586.97;5088696;28;9691;-77
2023/08/04 02:41:31;;;;;;;;;12.00;11.80;;;;;25.96;36.46;98587.94;5089529;28;8961;-79
2023/08/04 02:44:00;;;;;;;;;12.60;12.00;;;;;25.89;36.99;98584.19;5070818;28;8843;-78
2023/08/04 02:46:31;;;;;;;;;14.00;13.00;;;;;25.82;37.54;98585.78;5070714;28;8854;-77
2023/08/04 02:48:59;;;;;;;;;11.40;11.40;;;;;25.88;37.06;98588.69;5069219;28;8895;-77
2023/08/04 02:51:28;;;;;;;;;11.20;10.60;;;;;25.94;36.85;98591.81;5028984;28;8981;-75
2023/08/04 02:53:57;;;;;;;;;12.20;12.20;;;;;26.04;36.92;98593.44;5066155;28;8974;-77
2023/08/04 02:56:26;;;;;;;;;11.80;11.80;;;;;26.05;36.24;98595.09;5014818;28;8864;-77
2023/08/04 02:58:55;;;;;;;;;13.40;13.40;;;;;26.12;36.67;98595.34;5048046;28;8857;-78
2023/08/04 03:01:23;;;;;;;;;12.40;12.40;;;;;26.09;36.90;98596.47;5064676;28;8864;-77
2023/08/04 03:03:53;;;;;;;;;11.00;11.00;;;;;26.00;36.60;98591.19;5060725;28;8856;-77
2023/08/04 03:06:22;;;;;;;;;13.20;12.80;;;;;25.98;36.78;98590.50;5089213;28;8848;-78
2023/08/04 03:08:51;;;;;;;;;10.00;10.00;;;;;25.97;36.26;98596.91;5086917;28;8871;-78
2023/08/04 03:11:20;;;;;;;;;10.80;10.00;;;;;25.98;36.55;98594.03;5068619;28;8850;-77
2023/08/04 03:13:49;;;;;;;;;12.40;12.00;;;;;26.06;36.65;98588.72;5068973;28;8981;-77
2023/08/04 03:16:17;;;;;;;;;14.20;11.00;;;;;26.08;36.71;98594.81;5068902;28;8987;-78
2023/08/04 03:18:46;;;;;;;;;11.40;10.80;;;;;26.19;36.24;98600.94;5068611;28;8839;-77
2023/08/04 03:21:16;;;;;;;;;10.80;10.80;;;;;26.22;36.58;98593.41;5074693;28;8882;-77
2023/08/04 03:23:45;;;;;;;;;29.75;28.75;;;;;26.29;36.95;98607.09;5088796;28;8923;-77
2023/08/04 03:26:14;;;;;;;;;19.40;18.80;;;;;26.33;36.62;98602.25;5088899;28;8878;-77
2023/08/04 03:28:43;;;;;;;;;10.60;10.60;;;;;26.25;36.80;98600.34;5055359;28;8856;-78
2023/08/04 03:31:12;;;;;;;;;14.00;12.60;;;;;26.26;36.68;98593.94;5090820;28;8867;-78
2023/08/04 03:33:41;;;;;;;;;10.00;10.00;;;;;26.29;36.34;98594.47;5087663;28;8882;-78
2023/08/04 03:36:10;;;;;;;;;13.80;13.80;;;;;26.32;35.83;98596.00;5083028;28;8830;-79
2023/08/04 03:38:40;;;;;;;;;11.80;10.60;;;;;26.35;36.48;98601.06;5083029;28;8866;-77
2023/08/04 03:41:09;;;;;;;;;13.00;13.00;;;;;26.34;36.66;98601.22;5089892;28;8867;-77
2023/08/04 03:43:37;;;;;;;;;16.40;16.40;;;;;26.43;36.47;98595.75;5090354;28;9606;-78
2023/08/04 03:46:06;;;;;;;;;13.00;12.00;;;;;26.50;36.01;98598.69;5088962;28;8859;-78
2023/08/04 03:48:35;;;;;;;;;14.80;14.00;;;;;26.56;36.32;98594.53;5088924;28;8839;-77
2023/08/04 03:51:04;;;;;;;;;14.00;13.60;;;;;26.58;36.80;98595.22;5088830;28;8848;-77
2023/08/04 03:53:33;;;;;;;;;24.00;23.40;;;;;26.60;36.36;98595.88;5088406;28;9617;-77
2023/08/04 03:56:03;;;;;;;;;18.00;17.20;;;;;26.59;36.74;98596.88;5086716;28;8844;-78
2023/08/04 03:58:32;;;;;;;;;13.00;13.00;;;;;26.59;36.43;98603.13;5044517;28;8890;-78
2023/08/04 04:01:01;;;;;;;;;16.40;15.40;;;;;26.52;36.31;98609.31;5068486;28;8985;-77
2023/08/04 04:03:30;;;;;;;;;11.20;11.20;;;;;26.55;36.14;98608.97;5066970;28;8975;-79
2023/08/04 04:05:59;;;;;;;;;13.00;12.20;;;;;26.60;36.73;98612.06;5067023;28;9013;-78
2023/08/04 04:08:27;;;;;;;;;15.80;14.80;;;;;26.71;36.27;98606.41;5068153;28;8843;-76
2023/08/04 04:10:56;;;;;;;;;14.00;13.60;;;;;26.66;36.03;98606.91;5016254;28;8865;-77
2023/08/04 04:13:26;;;;;;;;;14.40;14.40;;;;;26.80;35.96;98612.72;5086105;28;8940;-77
2023/08/04 04:15:55;;;;;;;;;16.60;16.00;;;;;26.89;36.12;98614.44;5088360;28;8902;-78
2023/08/04 04:18:24;;;;;;;;;22.00;21.00;;;;;26.99;35.93;98614.31;5068801;28;8881;-77
2023/08/04 04:20:52;;;;;;;;;19.00;19.00;;;;;27.10;36.24;98618.59;5068281;28;8858;-76
2023/08/04 04:23:21;;;;;;;;;15.80;15.80;;;;;27.15;37.30;98617.13;5068054;28;8838;-76
2023/08/04 04:25:51;;;;;;;;;15.20;14.80;;;;;27.24;36.78;98629.63;5067946;28;8866;-78
2023/08/04 04:28:20;;;;;;;;;43.00;37.25;;;;;27.26;36.73;98626.78;5067979;28;8850;-78
2023/08/04 04:30:51;;;;;;;;;26.60;26.60;;;;;27.26;36.49;98624.06;5084578;28;8947;-76
2023/08/04 04:33:20;;;;;;;;;21.20;21.20;;;;;27.24;35.86;98626.09;5088876;28;8836;-78
2023/08/04 04:35:51;;;;;;;;;20.00;20.00;;;;;27.26;35.95;98634.88;5087827;28;8953;-77
2023/08/04 04:38:20;;;;;;;;;15.00;14.00;;;;;27.28;36.13;98630.16;5080697;28;9592;-77
2023/08/04 04:40:55;;;;;;;;;15.40;14.60;;;;;27.39;35.99;98629.88;5066203;28;8870;-78
2023/08/04 04:43:25;;;;;;;;;15.60;13.80;;;;;27.33;35.96;98632.38;5068747;28;8850;-77
2023/08/04 04:45:56;;;;;;;;;16.40;15.80;;;;;27.33;36.04;98627.81;5075179;28;8840;-77
2023/08/04 04:48:26;;;;;;;;;12.20;12.20;;;;;27.14;35.80;98628.09;5091952;28;9601;-76
2023/08/04 04:50:54;;;;;;;;;14.00;13.80;;;;;27.15;36.17;98625.19;5086865;28;8866;-78
2023/08/04 04:53:23;;;;;;;;;15.60;15.60;;;;;27.11;36.15;98631.09;5036330;28;8866;-77
2023/08/04 04:55:52;;;;;;;;;14.80;13.80;;;;;27.15;36.33;98635.16;5071313;28;8882;-77
2023/08/04 04:58:21;;;;;;;;;14.80;14.40;;;;;27.23;36.50;98641.44;5071640;28;8885;-76
2023/08/04 05:00:50;;;;;;;;;13.60;11.80;;;;;27.37;36.48;98636.44;5069192;28;8846;-76
2023/08/04 05:03:20;;;;;;;;;18.00;17.60;;;;;27.55;36.87;98642.59;5074170;28;8922;-77
2023/08/04 05:05:49;;;;;;;;;24.40;22.00;;;;;27.64;36.96;98640.78;5091139;28;8860;-77
2023/08/04 05:08:18;;;;;;;;;20.40;20.40;;;;;27.73;36.60;98637.09;5087947;28;8874;-78
2023/08/04 05:10:50;;;;;;;;;18.00;16.00;;;;;27.61;37.82;98641.13;5070834;28;8989;-78
2023/08/04 05:13:20;;;;;;;;;23.80;23.40;;;;;27.32;37.75;98646.88;5070308;28;8836;-76
2023/08/04 05:15:48;;;;;;;;;25.20;23.40;;;;;27.36;38.17;98649.06;5069179;28;8894;-77
2023/08/04 05:18:17;;;;;;;;;17.50;17.50;;;;;27.61;38.78;98647.34;5035778;28;8843;-77
2023/08/04 05:20:48;;;;;;;;;21.00;20.80;;;;;27.83;39.18;98653.97;5083175;28;8832;-77
2023/08/04 05:23:17;;;;;;;;;18.40;17.00;;;;;28.02;39.23;98650.16;5091160;28;9591;-76
2023/08/04 05:25:46;;;;;;;;;21.40;18.60;;;;;28.17;38.78;98649.50;5090745;28;8868;-77
2023/08/04 05:28:23;;;;;;;;;15.20;14.00;;;;;28.40;38.38;98657.78;5089895;28;8852;-77
2023/08/04 05:30:56;;;;;;;;;16.60;16.60;;;;;28.45;38.19;98657.28;5069923;28;8862;-77
2023/08/04 05:33:26;;;;;;;;;20.60;19.80;;;;;28.47;38.17;98666.09;5070716;28;8982;-77
2023/08/04 05:35:57;;;;;;;;;18.00;18.00;;;;;28.56;37.94;98657.78;5070288;28;8866;-78
2023/08/04 05:38:26;;;;;;;;;15.60;15.60;;;;;28.63;37.35;98665.22;5080165;28;8890;-78
2023/08/04 05:40:55;;;;;;;;;19.80;18.80;;;;;28.67;37.10;98670.16;5090361;28;8876;-80
2023/08/04 05:43:24;;;;;;;;;16.00;15.60;;;;;28.75;37.07;98672.84;5085490;28;8858;-78
2023/08/04 05:45:53;;;;;;;;;20.20;20.00;;;;;28.81;37.49;98667.78;5073472;28;8854;-76
2023/08/04 05:48:22;;;;;;;;;18.60;18.60;;;;;28.88;36.92;98674.19;5078377;28;8826;-76
2023/08/04 05:50:56;;;;;;;;;18.20;18.20;;;;;28.99;36.67;98658.44;5071858;28;8866;-77
2023/08/04 05:53:25;;;;;;;;;22.00;21.25;;;;;29.01;36.18;98662.81;5068770;28;8890;-77
2023/08/04 05:55:54;;;;;;;;;17.50;16.75;;;;;29.09;35.03;98655.53;5086906;28;8986;-78
2023/08/04 05:58:23;;;;;;;;;17.20;16.40;;;;;29.17;35.10;98662.81;5089997;28;8839;-78
2023/08/04 06:00:52;;;;;;;;;17.40;16.00;;;;;29.21;34.63;98666.00;5054431;28;9696;-79
2023/08/04 06:03:21;;;;;;;;;16.80;16.80;;;;;29.20;34.63;98659.75;5090665;28;8887;-77
2023/08/04 06:05:50;;;;;;;;;15.20;15.00;;;;;29.21;34.19;98663.31;5067941;28;8882;-77
2023/08/04 06:08:20;;;;;;;;;17.40;17.00;;;;;29.28;34.86;98658.88;5034465;28;8900;-77
2023/08/04 06:10:49;;;;;;;;;15.40;15.20;;;;;29.43;34.29;98661.72;5078215;28;8895;-78
2023/08/04 06:13:18;;;;;;;;;15.40;14.40;;;;;29.53;34.34;98662.31;5090602;28;8859;-76
2023/08/04 06:15:47;;;;;;;;;19.00;18.00;;;;;29.57;34.34;98666.38;5054401;28;8831;-77
2023/08/04 06:18:17;;;;;;;;;18.50;18.50;;;;;29.66;34.71;98664.47;5049991;28;8872;-77
2023/08/04 06:20:47;;;;;;;;;17.25;17.00;;;;;29.75;34.52;98664.28;5065165;28;8862;-76
2023/08/04 06:23:16;;;;;;;;;21.75;20.50;;;;;29.87;34.21;98666.59;5066838;28;8859;-77
2023/08/04 06:25:46;;;;;;;;;25.50;22.00;;;;;29.98;34.62;98670.75;5068604;28;8850;-73
2023/08/04 06:28:15;;;;;;;;;17.40;16.60;;;;;30.03;33.53;98671.03;5075087;28;10161;-71
2023/08/04 06:30:44;;;;;;;;;15.20;14.40;;;;;30.12;32.41;98669.97;5067980;28;8858;-69
2023/08/04 06:33:13;;;;;;;;;15.40;15.40;;;;;30.24;32.72;98673.16;5068293;28;8846;-70
2023/08/04 06:35:44;;;;;;;;;14.40;14.40;;;;;30.31;32.75;98668.66;5068622;28;8878;-70
2023/08/04 06:38:13;;;;;;;;;12.20;12.20;;;;;30.43;31.88;98678.06;5058893;28;8941;-70
2023/08/04 06:40:41;;;;;;;;;12.60;12.60;;;;;30.51;31.46;98672.56;5064629;28;8858;-70
2023/08/04 06:43:12;;;;;;;;;13.40;12.60;;;;;30.64;31.32;98679.25;5071859;28;8850;-72
2023/08/04 06:45:40;;;;;;;;;14.75;14.75;;;;;30.72;31.88;98677.31;5065437;28;8992;-72
2023/08/04 06:48:09;;;;;;;;;10.50;10.50;;;;;30.85;31.88;98681.28;5047193;28;8917;-72
2023/08/04 06:50:38;;;;;;;;;26.50;26.50;;;;;30.98;33.37;98681.50;5065289;28;9671;-71
2023/08/04 06:53:07;;;;;;;;;21.00;20.25;;;;;31.10;32.89;98680.00;5045174;28;8923;-71
2023/08/04 06:55:36;;;;;;;;;16.00;15.60;;;;;31.15;32.41;98678.63;5068398;28;8874;-70
2023/08/04 06:58:07;;;;;;;;;20.50;19.75;;;;;31.29;32.57;98677.78;5058898;28;8933;-69
2023/08/04 07:00:37;;;;;;;;;14.60;14.00;;;;;31.38;32.14;98687.53;5059522;28;8853;-71
2023/08/04 07:03:08;;;;;;;;;13.50;12.25;;;;;31.42;32.02;98682.56;5042869;28;8864;-70
2023/08/04 07:05:37;;;;;;;;;14.50;14.25;;;;;31.49;31.80;98676.19;5065707;28;8988;-71
2023/08/04 07:08:05;;;;;;;;;14.25;14.25;;;;;31.51;31.46;98686.03;5060331;28;8850;-69
2023/08/04 07:10:35;;;;;;;;;12.75;12.75;;;;;31.57;31.49;98674.41;5067294;28;8866;-71
2023/08/04 07:13:04;;;;;;;;;17.50;16.75;;;;;31.71;31.26;98678.13;5013180;28;8969;-71
2023/08/04 07:15:34;;;;;;;;;11.50;11.50;;;;;31.69;30.63;98683.75;5065147;28;8854;-71
2023/08/04 07:18:04;;;;;;;;;11.60;11.60;;;;;30.63;31.96;98670.25;5061683;28;8857;-70
2023/08/04 07:20:33;;;;;;;;;15.25;14.75;;;;;30.80;32.00;98681.00;5067977;28;8988;-70
2023/08/04 07:23:02;;;;;;;;;14.40;14.40;;;;;31.13;32.29;98677.94;5047047;28;8884;-70
2023/08/04 07:25:30;;;;;;;;;16.20;15.40;;;;;31.36;31.83;98683.31;5065478;28;8846;-71
2023/08/04 07:27:59;;;;;;;;;16.25;15.00;;;;;31.52;31.27;98685.81;5032461;28;8834;-72
2023/08/04 07:30:28;;;;;;;;;14.25;14.25;;;;;31.67;31.01;98681.25;5067376;28;9695;-72
2023/08/04 07:32:57;;;;;;;;;15.75;14.75;;;;;31.77;30.74;98680.09;5067361;28;8857;-72
2023/08/04 07:35:27;;;;;;;;;15.25;15.25;;;;;31.87;30.81;98686.06;5067116;28;8874;-71
2023/08/04 07:37:56;;;;;;;;;13.75;13.50;;;;;31.95;29.78;98680.50;5067813;28;8850;-71
2023/08/04 07:40:24;;;;;;;;;17.25;16.00;;;;;31.95;30.36;98687.84;5053364;28;8873;-70
2023/08/04 07:42:53;;;;;;;;;16.20;15.60;;;;;32.04;29.75;98678.53;5067056;28;8854;-70
2023/08/04 07:45:22;;;;;;;;;17.00;17.00;;;;;32.11;30.46;98675.84;5067123;28;8870;-70
2023/08/04 07:47:51;;;;;;;;;16.25;16.25;;;;;32.13;30.16;98684.66;5067270;28;8939;-70
2023/08/04 07:50:20;;;;;;;;;17.25;16.00;;;;;32.23;29.54;98679.78;5067584;28;8958;-70
2023/08/04 07:52:50;;;;;;;;;14.75;14.75;;;;;32.28;29.57;98688.22;5065974;28;8839;-71
2023/08/04 07:55:19;;;;;;;;;14.75;14.75;;;;;32.39;29.91;98681.41;5067311;28;8990;-71
2023/08/04 07:57:48;;;;;;;;;17.75;16.25;;;;;32.44;29.44;98687.09;5067813;28;8870;-71
2023/08/04 08:00:17;;;;;;;;;16.75;16.75;;;;;32.51;29.77;98685.28;5065522;28;8861;-70
2023/08/04 08:02:45;;;;;;;;;17.75;16.50;;;;;32.52;29.49;98675.25;5066428;28;8886;-71
2023/08/04 08:05:14;;;;;;;;;21.25;20.50;;;;;31.97;30.94;98683.88;5031660;28;8881;-71
2023/08/04 08:07:43;;;;;;;;;22.25;21.00;;;;;32.04;31.39;98682.06;5068082;28;8866;-78
2023/08/04 08:10:15;;;;;;;;;22.75;21.50;;;;;32.06;31.56;98681.88;5068287;28;8870;-81
2023/08/04 08:12:44;;;;;;;;;18.75;18.00;;;;;31.66;31.86;98679.56;5054248;28;8849;-74
2023/08/04 08:15:13;;;;;;;;;23.75;23.00;;;;;31.68;32.09;98687.53;5066953;28;8850;-75
2023/08/04 08:17:42;;;;;;;;;22.75;20.75;;;;;31.96;32.10;98687.66;5066105;28;8858;-74
2023/08/04 08:20:11;;;;;;;;;28.75;24.50;;;;;32.18;31.66;98679.53;5069236;28;8870;-76
2023/08/04 08:22:40;;;;;;;;;22.50;21.75;;;;;32.33;31.69;98680.31;5071456;28;8838;-75
2023/08/04 08:25:10;;;;;;;;;23.00;21.75;;;;;32.40;31.41;98680.38;5071517;28;8882;-74
2023/08/04 08:27:40;;;;;;;;;18.25;18.25;;;;;32.49;31.23;98678.34;5069967;28;8854;-74
2023/08/04 08:30:11;;;;;;;;;19.75;18.00;;;;;31.75;31.70;98687.59;5071629;28;8884;-73
2023/08/04 08:32:40;;;;;;;;;26.25;25.50;;;;;30.19;34.69;98698.06;5071209;28;8846;-78
2023/08/04 08:35:09;;;;;;;;;20.00;20.00;;;;;29.40;35.88;98681.84;5071023;28;9004;-71
2023/08/04 08:37:38;;;;;;;;;21.50;21.50;;;;;29.50;35.68;98679.78;5086826;28;8961;-70
2023/08/04 08:40:08;;;;;;;;;23.00;23.00;;;;;29.85;35.93;98677.59;5069575;28;8897;-72
2023/08/04 08:42:37;;;;;;;;;23.25;21.25;;;;;30.23;34.85;98676.88;5070326;28;8850;-72
2023/08/04 08:45:08;;;;;;;;;20.25;20.00;;;;;30.68;34.12;98673.31;5070727;28;8860;-70
2023/08/04 08:47:38;;;;;;;;;22.00;21.25;;;;;30.98;34.22;98676.06;5070910;28;8850;-72
2023/08/04 08:50:08;;;;;;;;;23.50;23.50;;;;;31.31;33.54;98678.44;5035577;28;8895;-73
2023/08/04 08:52:39;;;;;;;;;20.75;20.75;;;;;31.46;33.06;98683.84;5070442;28;8854;-72
2023/08/04 08:55:09;;;;;;;;;23.00;21.75;;;;;31.67;32.55;98674.97;5070625;28;8892;-73
2023/08/04 08:57:39;;;;;;;;;19.00;18.75;;;;;31.83;32.25;98680.19;5070437;28;8843;-72
2023/08/04 09:00:10;;;;;;;;;24.00;24.00;;;;;32.11;32.24;98674.00;5070101;28;9798;-72
2023/08/04 09:02:40;;;;;;;;;23.25;22.25;;;;;32.19;32.31;98667.63;5086009;28;8850;-71
2023/08/04 09:05:10;;;;;;;;;22.50;21.75;;;;;32.20;31.60;98672.84;5070224;28;8842;-72
2023/08/04 09:07:39;;;;;;;;;18.75;17.25;;;;;32.38;31.19;98674.28;5048027;28;8896;-70
2023/08/04 09:10:09;;;;;;;;;23.75;21.50;;;;;32.37;31.70;98672.59;5068329;28;8859;-72
2023/08/04 09:12:38;;;;;;;;;21.75;21.25;;;;;32.49;32.05;98668.31;5059397;28;8946;-73
2023/08/04 09:15:10;;;;;;;;;14.25;14.00;;;;;32.56;31.39;98669.19;5067768;28;8843;-73
2023/08/04 09:17:40;;;;;;;;;20.00;19.50;;;;;32.41;31.25;98663.00;5070411;28;8843;-72
2023/08/04 09:20:11;;;;;;;;;17.00;17.00;;;;;32.12;31.82;98678.41;5070015;28;8884;-72
2023/08/04 09:22:43;;;;;;;;;17.50;17.00;;;;;32.25;31.17;98661.41;5070512;28;8838;-74
2023/08/04 09:25:11;;;;;;;;;18.00;17.50;;;;;32.32;31.41;98658.72;5034519;28;8842;-72
2023/08/04 09:27:43;;;;;;;;;20.00;20.00;;;;;32.42;31.49;98661.97;5070064;28;8865;-70
2023/08/04 09:30:13;;;;;;;;;16.50;16.25;;;;;32.40;31.13;98666.78;5070150;28;8884;-71
2023/08/04 09:32:44;;;;;;;;;16.00;15.25;;;;;32.02;31.84;98661.56;5069904;28;8847;-71
2023/08/04 09:35:14;;;;;;;;;18.00;18.00;;;;;32.17;31.99;98664.25;5070138;28;8873;-71
2023/08/04 09:37:44;;;;;;;;;20.50;18.50;;;;;32.21;32.10;98660.94;5054701;28;9565;-71
2023/08/04 09:40:17;;;;;;;;;18.75;18.75;;;;;32.35;32.22;98661.91;5065346;28;8847;-70
2023/08/04 09:42:48;;;;;;;;;22.00;20.25;;;;;32.43;31.77;98658.19;5069656;28;8831;-72
2023/08/04 09:45:19;;;;;;;;;20.75;20.25;;;;;32.60;32.33;98656.91;5070034;28;8839;-72
2023/08/04 09:47:49;;;;;;;;;19.75;19.75;;;;;32.55;32.32;98655.81;5068875;28;8897;-71
2023/08/04 09:50:19;;;;;;;;;19.50;18.00;;;;;32.77;32.38;98657.50;5069405;28;8835;-72
2023/08/04 09:52:48;;;;;;;;;17.00;16.50;;;;;32.83;32.30;98655.84;5068523;28;8846;-71
2023/08/04 09:55:17;;;;;;;;;21.25;20.25;;;;;32.86;31.93;98649.16;5061411;28;8937;-72
2023/08/04 09:57:46;;;;;;;;;23.25;21.75;;;;;32.86;31.64;98647.28;5069467;28;8838;-70
2023/08/04 10:00:16;;;;;;;;;18.25;16.75;;;;;32.76;32.25;98647.63;5061449;28;8882;-71
2023/08/04 10:02:49;;;;;;;;;23.00;22.25;;;;;32.93;32.33;98647.31;5056608;28;8858;-71
2023/08/04 10:05:18;;;;;;;;;16.50;15.50;;;;;32.99;31.78;98649.25;5068332;28;8843;-71
2023/08/04 10:07:48;;;;;;;;;20.33;20.33;;;;;32.99;31.49;98655.53;5069069;28;8838;-70
2023/08/04 10:10:19;;;;;;;;;20.00;19.50;;;;;32.93;31.93;98642.72;5069117;28;8847;-70
2023/08/04 10:12:48;;;;;;;;;21.25;21.25;;;;;32.94;31.75;98644.41;5069154;28;8875;-71
2023/08/04 10:15:18;;;;;;;;;21.00;19.50;;;;;33.01;31.61;98642.53;5017341;28;8866;-72
2023/08/04 10:17:51;;;;;;;;;22.75;22.25;;;;;32.98;31.61;98644.81;5069286;28;8846;-74
2023/08/04 10:20:21;;;;;;;;;18.00;18.00;;;;;32.99;31.35;98636.47;5069209;28;8927;-71
2023/08/04 10:22:52;;;;;;;;;16.00;15.00;;;;;32.97;31.61;98643.16;5055812;28;9493;-71
2023/08/04 10:25:21;;;;;;;;;20.00;20.00;;;;;32.98;31.71;98633.94;5069281;28;8850;-71
2023/08/04 10:27:51;;;;;;;;;17.50;17.00;;;;;33.14;30.95;98630.09;5069337;28;8858;-72
2023/08/04 10:30:21;;;;;;;;;20.00;20.00;;;;;33.35;30.72;98629.97;5051005;28;8850;-71
2023/08/04 10:33:10;;;;;;;;;20.75;19.75;;;;;33.49;31.44;98630.91;5056154;28;8847;-72
2023/08/04 10:36:05;;;;;;;;;22.25;22.00;;;;;33.54;31.21;98627.56;5068781;28;8973;-70
2023/08/04 10:38:45;;;;;;;;;18.75;17.75;;;;;33.54;31.29;98622.13;5068735;28;8878;-71
2023/08/04 10:41:14;;;;;;;;;20.50;20.50;;;;;33.53;31.11;98626.72;5067293;28;8935;-73
2023/08/04 10:43:59;;;;;;;;;23.50;22.50;;;;;33.77;30.67;98616.31;5068213;28;8842;-71
2023/08/04 10:46:28;;;;;;;;;21.25;20.00;;;;;33.73;30.06;98618.63;5033459;28;8854;-72
2023/08/04 10:49:02;;;;;;;;;21.25;19.75;;;;;33.83;30.23;98610.06;5016285;28;8899;-70
2023/08/04 10:51:32;;;;;;;;;17.25;17.25;;;;;33.84;29.95;98613.63;5065518;28;8846;-70
2023/08/04 10:54:00;;;;;;;;;19.75;19.75;;;;;33.83;29.92;98612.78;5067054;28;8974;-70
2023/08/04 10:56:29;;;;;;;;;21.50;20.25;;;;;33.99;29.82;98606.09;5060900;28;8865;-71
2023/08/04 10:58:58;;;;;;;;;24.50;22.25;;;;;34.10;29.57;98600.06;5064627;28;8905;-70
2023/08/04 11:01:28;;;;;;;;;18.50;18.50;;;;;34.04;29.58;98590.00;5068155;28;8888;-72
2023/08/04 11:03:57;;;;;;;;;20.25;19.25;;;;;34.19;29.39;98595.25;5068368;28;8890;-71
2023/08/04 11:06:27;;;;;;;;;17.25;16.75;;;;;34.15;29.22;98589.38;5068326;28;9596;-71
2023/08/04 11:08:56;;;;;;;;;19.00;17.00;;;;;34.31;29.44;98584.53;5052399;28;8866;-74
2023/08/04 11:11:26;;;;;;;;;15.75;14.50;;;;;34.38;29.33;98582.66;5067980;28;8895;-75
2023/08/04 11:13:57;;;;;;;;;21.25;19.75;;;;;34.54;28.61;98574.03;5061286;28;9012;-77
2023/08/04 11:16:26;;;;;;;;;16.00;16.00;;;;;34.68;28.66;98572.16;5025661;28;8851;-74
2023/08/04 11:18:55;;;;;;;;;18.50;18.50;;;;;34.74;28.79;98571.28;5058864;28;8945;-76
2023/08/04 11:21:24;;;;;;;;;16.25;14.25;;;;;34.88;28.26;98572.06;5054353;28;8963;-77
2023/08/04 11:23:54;;;;;;;;;18.50;18.25;;;;;35.09;28.00;98564.69;5067905;28;8965;-75
2023/08/04 11:26:24;;;;;;;;;17.50;17.50;;;;;35.22;27.75;98561.91;5061858;28;8857;-75
2023/08/04 11:28:56;;;;;;;;;20.25;18.75;;;;;35.45;27.75;98557.84;5048014;28;8960;-75
2023/08/04 11:31:26;;;;;;;;;14.50;14.25;;;;;35.35;27.16;98558.31;5050183;28;8946;-74
2023/08/04 11:33:54;;;;;;;;;16.50;16.50;;;;;35.60;26.79;98555.63;5068136;28;8905;-76
2023/08/04 11:36:23;;;;;;;;;17.00;17.00;;;;;35.40;27.75;98560.38;5059477;28;8849;-77
2023/08/04 11:38:53;;;;;;;;;15.00;15.00;;;;;35.60;27.63;98557.53;5054652;28;8842;-75